sensor_id;sensor_type;location;lat;lon;timestamp;P1;durP1;ratioP1;P2;durP2;ratioP2
75772;SDS011;64381;0.000;0.000;2023-02-13T00:00:32;5.27;;;2.60;;
75772;SDS011;64381;0.000;0.000;2023-02-13T00:02:57;4.63;;;2.67;;
75772;SDS011;64381;0.000;0.000;2023-02-13T00:05:23;4.77;;;2.50;;
75772;SDS011;64381;0.000;0.000;2023-02-13T00:07:48;5.43;;;2.57;;
75772;SDS011;64381;0.000;0.000;2023-02-13T00:10:13;4.57;;;2.37;;
75772;SDS011;64381;0.000;0.000;2023-02-13T00:12:38;4.30;;;2.70;;
75772;SDS011;64381;0.000;0.000;2023-02-13T00:15:05;5.03;;;2.80;;
75772;SDS011;64381;0.000;0.000;2023-02-13T00:17:30;4.67;;;2.53;;
75772;SDS011;64381;0.000;0.000;2023-02-13T00:19:56;4.60;;;2.60;;
75772;SDS011;64381;0.000;0.000;2023-02-13T00:22:21;4.43;;;2.60;;
75772;SDS011;64381;0.000;0.000;2023-02-13T00:24:46;4.40;;;2.40;;
75772;SDS011;64381;0.000;0.000;2023-02-13T00:27:11;4.70;;;2.80;;
75772;SDS011;64381;0.000;0.000;2023-02-13T00:29:36;4.60;;;2.30;;
75772;SDS011;64381;0.000;0.000;2023-02-13T00:32:02;4.27;;;2.57;;
75772;SDS011;64381;0.000;0.000;2023-02-13T00:34:27;4.80;;;2.53;;
75772;SDS011;64381;0.000;0.000;2023-02-13T00:36:52;4.60;;;2.80;;
75772;SDS011;64381;0.000;0.000;2023-02-13T00:39:17;4.23;;;2.10;;
75772;SDS011;64381;0.000;0.000;2023-02-13T00:41:43;4.50;;;2.60;;
75772;SDS011;64381;0.000;0.000;2023-02-13T00:44:09;5.10;;;2.77;;
75772;SDS011;64381;0.000;0.000;2023-02-13T00:46:34;4.90;;;2.43;;
75772;SDS011;64381;0.000;0.000;2023-02-13T00:49:00;4.82;;;2.60;;
75772;SDS011;64381;0.000;0.000;2023-02-13T00:51:25;5.20;;;2.80;;
75772;SDS011;64381;0.000;0.000;2023-02-13T00:53:50;4.63;;;2.50;;
75772;SDS011;64381;0.000;0.000;2023-02-13T00:56:15;4.57;;;2.50;;
75772;SDS011;64381;0.000;0.000;2023-02-13T00:58:41;4.90;;;2.70;;
75772;SDS011;64381;0.000;0.000;2023-02-13T01:01:06;5.33;;;2.80;;
75772;SDS011;64381;0.000;0.000;2023-02-13T01:03:31;4.70;;;2.80;;
75772;SDS011;64381;0.000;0.000;2023-02-13T01:05:56;4.97;;;2.67;;
75772;SDS011;64381;0.000;0.000;2023-02-13T01:08:21;6.60;;;2.87;;
75772;SDS011;64381;0.000;0.000;2023-02-13T01:10:47;4.43;;;2.47;;
75772;SDS011;64381;0.000;0.000;2023-02-13T01:13:13;4.70;;;2.57;;
75772;SDS011;64381;0.000;0.000;2023-02-13T01:15:39;5.22;;;2.70;;
75772;SDS011;64381;0.000;0.000;2023-02-13T01:18:05;5.13;;;2.70;;
75772;SDS011;64381;0.000;0.000;2023-02-13T01:20:30;6.83;;;3.30;;
75772;SDS011;64381;0.000;0.000;2023-02-13T01:22:56;5.00;;;2.70;;
75772;SDS011;64381;0.000;0.000;2023-02-13T01:25:22;4.70;;;2.50;;
75772;SDS011;64381;0.000;0.000;2023-02-13T01:27:48;4.78;;;2.75;;
75772;SDS011;64381;0.000;0.000;2023-02-13T01:32:40;4.85;;;2.80;;
75772;SDS011;64381;0.000;0.000;2023-02-13T01:35:06;4.90;;;2.80;;
75772;SDS011;64381;0.000;0.000;2023-02-13T01:37:32;4.40;;;2.35;;
75772;SDS011;64381;0.000;0.000;2023-02-13T01:39:57;5.07;;;2.70;;
75772;SDS011;64381;0.000;0.000;2023-02-13T01:42:27;4.87;;;2.90;;
75772;SDS011;64381;0.000;0.000;2023-02-13T01:44:54;5.03;;;2.80;;
75772;SDS011;64381;0.000;0.000;2023-02-13T01:52:43;5.20;;;2.85;;
75772;SDS011;64381;0.000;0.000;2023-02-13T01:55:13;4.43;;;2.70;;
75772;SDS011;64381;0.000;0.000;2023-02-13T01:57:39;4.47;;;2.40;;
75772;SDS011;64381;0.000;0.000;2023-02-13T02:00:09;4.88;;;2.47;;
75772;SDS011;64381;0.000;0.000;2023-02-13T02:02:37;4.70;;;2.63;;
75772;SDS011;64381;0.000;0.000;2023-02-13T02:05:06;4.53;;;2.53;;
75772;SDS011;64381;0.000;0.000;2023-02-13T02:07:32;5.03;;;2.67;;
75772;SDS011;64381;0.000;0.000;2023-02-13T02:10:07;5.45;;;2.80;;
75772;SDS011;64381;0.000;0.000;2023-02-13T02:15:31;4.95;;;2.50;;
75772;SDS011;64381;0.000;0.000;2023-02-13T02:17:57;4.43;;;2.57;;
75772;SDS011;64381;0.000;0.000;2023-02-13T02:37:01;4.93;;;2.60;;
75772;SDS011;64381;0.000;0.000;2023-02-13T02:39:43;4.78;;;2.50;;
75772;SDS011;64381;0.000;0.000;2023-02-13T02:50:51;4.75;;;2.70;;
75772;SDS011;64381;0.000;0.000;2023-02-13T02:53:30;4.43;;;2.50;;
75772;SDS011;64381;0.000;0.000;2023-02-13T02:59:05;4.93;;;2.67;;
75772;SDS011;64381;0.000;0.000;2023-02-13T03:01:35;5.10;;;2.78;;
75772;SDS011;64381;0.000;0.000;2023-02-13T03:04:02;4.20;;;2.40;;
75772;SDS011;64381;0.000;0.000;2023-02-13T03:06:36;4.40;;;2.53;;
75772;SDS011;64381;0.000;0.000;2023-02-13T03:09:09;5.03;;;2.53;;
75772;SDS011;64381;0.000;0.000;2023-02-13T03:11:38;4.30;;;2.50;;
75772;SDS011;64381;0.000;0.000;2023-02-13T03:14:04;5.35;;;2.80;;
75772;SDS011;64381;0.000;0.000;2023-02-13T03:16:32;4.28;;;2.60;;
75772;SDS011;64381;0.000;0.000;2023-02-13T03:18:57;4.70;;;2.60;;
75772;SDS011;64381;0.000;0.000;2023-02-13T03:24:15;3.90;;;2.50;;
75772;SDS011;64381;0.000;0.000;2023-02-13T03:26:51;4.35;;;2.60;;
75772;SDS011;64381;0.000;0.000;2023-02-13T03:29:44;4.43;;;2.43;;
75772;SDS011;64381;0.000;0.000;2023-02-13T03:33:04;4.38;;;2.35;;
75772;SDS011;64381;0.000;0.000;2023-02-13T03:38:28;4.72;;;2.20;;
75772;SDS011;64381;0.000;0.000;2023-02-13T03:41:21;4.72;;;2.70;;
75772;SDS011;64381;0.000;0.000;2023-02-13T03:46:33;4.72;;;2.58;;
75772;SDS011;64381;0.000;0.000;2023-02-13T03:49:02;5.47;;;2.75;;
75772;SDS011;64381;0.000;0.000;2023-02-13T03:51:41;3.92;;;2.13;;
75772;SDS011;64381;0.000;0.000;2023-02-13T03:54:15;4.15;;;2.28;;
75772;SDS011;64381;0.000;0.000;2023-02-13T03:56:43;4.13;;;2.37;;
75772;SDS011;64381;0.000;0.000;2023-02-13T03:59:17;4.95;;;2.50;;
75772;SDS011;64381;0.000;0.000;2023-02-13T04:02:29;4.22;;;2.42;;
75772;SDS011;64381;0.000;0.000;2023-02-13T04:07:12;5.68;;;2.45;;
75772;SDS011;64381;0.000;0.000;2023-02-13T04:09:40;4.40;;;2.60;;
75772;SDS011;64381;0.000;0.000;2023-02-13T04:12:15;4.53;;;2.58;;
75772;SDS011;64381;0.000;0.000;2023-02-13T04:14:52;3.55;;;2.13;;
75772;SDS011;64381;0.000;0.000;2023-02-13T04:17:32;4.28;;;2.38;;
75772;SDS011;64381;0.000;0.000;2023-02-13T04:20:02;4.25;;;2.38;;
75772;SDS011;64381;0.000;0.000;2023-02-13T04:22:29;4.00;;;2.30;;
75772;SDS011;64381;0.000;0.000;2023-02-13T04:24:55;4.53;;;2.30;;
75772;SDS011;64381;0.000;0.000;2023-02-13T04:27:20;3.90;;;2.37;;
75772;SDS011;64381;0.000;0.000;2023-02-13T04:29:49;4.57;;;2.60;;
75772;SDS011;64381;0.000;0.000;2023-02-13T04:32:14;4.23;;;2.33;;
75772;SDS011;64381;0.000;0.000;2023-02-13T04:34:39;4.23;;;2.40;;
75772;SDS011;64381;0.000;0.000;2023-02-13T04:37:05;4.97;;;2.60;;
75772;SDS011;64381;0.000;0.000;2023-02-13T04:39:30;4.30;;;2.40;;
75772;SDS011;64381;0.000;0.000;2023-02-13T04:41:55;4.60;;;2.50;;
75772;SDS011;64381;0.000;0.000;2023-02-13T04:44:20;4.70;;;2.50;;
75772;SDS011;64381;0.000;0.000;2023-02-13T04:46:45;4.43;;;2.40;;
75772;SDS011;64381;0.000;0.000;2023-02-13T04:49:11;4.00;;;2.00;;
75772;SDS011;64381;0.000;0.000;2023-02-13T04:51:36;4.23;;;2.40;;
75772;SDS011;64381;0.000;0.000;2023-02-13T04:54:01;4.20;;;2.40;;
75772;SDS011;64381;0.000;0.000;2023-02-13T04:56:26;4.10;;;2.47;;
75772;SDS011;64381;0.000;0.000;2023-02-13T04:58:53;4.63;;;2.50;;
75772;SDS011;64381;0.000;0.000;2023-02-13T05:01:19;4.20;;;2.20;;
75772;SDS011;64381;0.000;0.000;2023-02-13T05:03:44;4.30;;;2.50;;
75772;SDS011;64381;0.000;0.000;2023-02-13T05:06:09;4.03;;;2.17;;
75772;SDS011;64381;0.000;0.000;2023-02-13T05:08:34;4.67;;;2.40;;
75772;SDS011;64381;0.000;0.000;2023-02-13T05:11:00;4.67;;;2.40;;
75772;SDS011;64381;0.000;0.000;2023-02-13T05:13:25;3.93;;;2.07;;
75772;SDS011;64381;0.000;0.000;2023-02-13T05:15:50;4.30;;;2.40;;
75772;SDS011;64381;0.000;0.000;2023-02-13T05:18:16;3.73;;;2.10;;
75772;SDS011;64381;0.000;0.000;2023-02-13T05:20:41;4.67;;;2.40;;
75772;SDS011;64381;0.000;0.000;2023-02-13T05:23:07;5.17;;;2.77;;
75772;SDS011;64381;0.000;0.000;2023-02-13T05:25:38;4.20;;;2.40;;
75772;SDS011;64381;0.000;0.000;2023-02-13T05:28:05;4.20;;;2.30;;
75772;SDS011;64381;0.000;0.000;2023-02-13T05:30:31;3.72;;;2.15;;
75772;SDS011;64381;0.000;0.000;2023-02-13T05:32:56;4.77;;;2.60;;
75772;SDS011;64381;0.000;0.000;2023-02-13T05:35:21;4.33;;;2.40;;
75772;SDS011;64381;0.000;0.000;2023-02-13T05:37:47;4.10;;;2.22;;
75772;SDS011;64381;0.000;0.000;2023-02-13T05:40:13;3.90;;;2.40;;
75772;SDS011;64381;0.000;0.000;2023-02-13T05:42:39;4.85;;;2.45;;
75772;SDS011;64381;0.000;0.000;2023-02-13T05:45:05;3.90;;;2.15;;
75772;SDS011;64381;0.000;0.000;2023-02-13T05:47:31;3.90;;;2.30;;
75772;SDS011;64381;0.000;0.000;2023-02-13T05:49:57;4.70;;;2.33;;
75772;SDS011;64381;0.000;0.000;2023-02-13T05:52:22;4.00;;;2.17;;
75772;SDS011;64381;0.000;0.000;2023-02-13T05:54:47;4.60;;;2.33;;
75772;SDS011;64381;0.000;0.000;2023-02-13T05:57:12;4.30;;;2.40;;
75772;SDS011;64381;0.000;0.000;2023-02-13T05:59:38;4.40;;;2.60;;
75772;SDS011;64381;0.000;0.000;2023-02-13T06:02:03;4.07;;;2.23;;
75772;SDS011;64381;0.000;0.000;2023-02-13T06:04:28;4.70;;;2.43;;
75772;SDS011;64381;0.000;0.000;2023-02-13T06:06:54;3.93;;;2.13;;
75772;SDS011;64381;0.000;0.000;2023-02-13T06:09:19;4.60;;;2.60;;
75772;SDS011;64381;0.000;0.000;2023-02-13T06:11:44;4.00;;;2.27;;
75772;SDS011;64381;0.000;0.000;2023-02-13T06:14:09;4.00;;;2.13;;
75772;SDS011;64381;0.000;0.000;2023-02-13T06:16:35;4.37;;;2.37;;
75772;SDS011;64381;0.000;0.000;2023-02-13T06:19:00;4.20;;;2.20;;
75772;SDS011;64381;0.000;0.000;2023-02-13T06:21:25;4.37;;;2.50;;
75772;SDS011;64381;0.000;0.000;2023-02-13T06:23:50;4.10;;;2.30;;
75772;SDS011;64381;0.000;0.000;2023-02-13T06:26:16;4.60;;;2.30;;
75772;SDS011;64381;0.000;0.000;2023-02-13T06:28:41;4.17;;;2.33;;
75772;SDS011;64381;0.000;0.000;2023-02-13T06:31:06;3.90;;;2.20;;
75772;SDS011;64381;0.000;0.000;2023-02-13T06:33:31;4.30;;;2.30;;
75772;SDS011;64381;0.000;0.000;2023-02-13T06:35:57;4.37;;;2.40;;
75772;SDS011;64381;0.000;0.000;2023-02-13T06:38:22;4.10;;;1.97;;
75772;SDS011;64381;0.000;0.000;2023-02-13T06:40:48;4.30;;;2.57;;
75772;SDS011;64381;0.000;0.000;2023-02-13T06:43:13;4.97;;;2.40;;
75772;SDS011;64381;0.000;0.000;2023-02-13T06:45:39;3.97;;;2.33;;
75772;SDS011;64381;0.000;0.000;2023-02-13T06:48:05;3.80;;;2.00;;
75772;SDS011;64381;0.000;0.000;2023-02-13T06:50:30;3.90;;;2.20;;
75772;SDS011;64381;0.000;0.000;2023-02-13T06:52:56;4.20;;;2.47;;
75772;SDS011;64381;0.000;0.000;2023-02-13T06:55:21;4.10;;;2.10;;
75772;SDS011;64381;0.000;0.000;2023-02-13T06:57:46;5.20;;;2.30;;
75772;SDS011;64381;0.000;0.000;2023-02-13T07:00:12;4.45;;;2.25;;
75772;SDS011;64381;0.000;0.000;2023-02-13T07:02:39;4.93;;;2.30;;
75772;SDS011;64381;0.000;0.000;2023-02-13T07:05:05;4.35;;;2.10;;
75772;SDS011;64381;0.000;0.000;2023-02-13T07:07:32;3.92;;;2.25;;
75772;SDS011;64381;0.000;0.000;2023-02-13T07:09:58;4.60;;;2.40;;
75772;SDS011;64381;0.000;0.000;2023-02-13T07:12:23;4.72;;;2.50;;
75772;SDS011;64381;0.000;0.000;2023-02-13T07:14:48;4.17;;;2.27;;
75772;SDS011;64381;0.000;0.000;2023-02-13T07:17:14;4.47;;;2.47;;
75772;SDS011;64381;0.000;0.000;2023-02-13T07:19:39;3.80;;;2.00;;
75772;SDS011;64381;0.000;0.000;2023-02-13T07:22:04;3.90;;;2.10;;
75772;SDS011;64381;0.000;0.000;2023-02-13T07:24:29;4.57;;;2.00;;
75772;SDS011;64381;0.000;0.000;2023-02-13T07:26:54;3.87;;;1.97;;
75772;SDS011;64381;0.000;0.000;2023-02-13T07:29:20;4.33;;;2.20;;
75772;SDS011;64381;0.000;0.000;2023-02-13T07:31:45;4.03;;;2.03;;
75772;SDS011;64381;0.000;0.000;2023-02-13T07:34:10;4.80;;;2.20;;
75772;SDS011;64381;0.000;0.000;2023-02-13T07:36:35;4.33;;;2.20;;
75772;SDS011;64381;0.000;0.000;2023-02-13T07:39:00;4.13;;;2.27;;
75772;SDS011;64381;0.000;0.000;2023-02-13T07:41:26;4.60;;;2.40;;
75772;SDS011;64381;0.000;0.000;2023-02-13T07:43:51;3.53;;;2.20;;
75772;SDS011;64381;0.000;0.000;2023-02-13T07:46:17;4.10;;;2.20;;
75772;SDS011;64381;0.000;0.000;2023-02-13T07:48:42;6.33;;;2.40;;
75772;SDS011;64381;0.000;0.000;2023-02-13T07:51:08;4.37;;;2.20;;
75772;SDS011;64381;0.000;0.000;2023-02-13T07:53:33;4.00;;;2.20;;
75772;SDS011;64381;0.000;0.000;2023-02-13T07:56:03;4.13;;;2.35;;
75772;SDS011;64381;0.000;0.000;2023-02-13T07:58:29;3.75;;;2.15;;
75772;SDS011;64381;0.000;0.000;2023-02-13T08:00:54;4.03;;;2.13;;
75772;SDS011;64381;0.000;0.000;2023-02-13T08:03:19;4.30;;;2.40;;
75772;SDS011;64381;0.000;0.000;2023-02-13T08:05:45;4.20;;;2.17;;
75772;SDS011;64381;0.000;0.000;2023-02-13T08:08:12;4.43;;;2.30;;
75772;SDS011;64381;0.000;0.000;2023-02-13T08:10:38;4.73;;;2.30;;
75772;SDS011;64381;0.000;0.000;2023-02-13T08:13:04;4.22;;;2.20;;
75772;SDS011;64381;0.000;0.000;2023-02-13T08:15:31;4.43;;;2.58;;
75772;SDS011;64381;0.000;0.000;2023-02-13T08:17:56;5.43;;;2.23;;
75772;SDS011;64381;0.000;0.000;2023-02-13T08:20:21;4.47;;;2.40;;
75772;SDS011;64381;0.000;0.000;2023-02-13T08:22:47;4.73;;;2.60;;
75772;SDS011;64381;0.000;0.000;2023-02-13T08:25:12;4.10;;;2.00;;
75772;SDS011;64381;0.000;0.000;2023-02-13T08:27:37;4.10;;;2.10;;
75772;SDS011;64381;0.000;0.000;2023-02-13T08:30:03;4.27;;;2.27;;
75772;SDS011;64381;0.000;0.000;2023-02-13T08:32:30;5.50;;;2.30;;
75772;SDS011;64381;0.000;0.000;2023-02-13T08:34:55;4.10;;;2.17;;
75772;SDS011;64381;0.000;0.000;2023-02-13T08:37:20;4.00;;;2.20;;
75772;SDS011;64381;0.000;0.000;2023-02-13T08:39:45;4.60;;;2.37;;
75772;SDS011;64381;0.000;0.000;2023-02-13T08:42:11;5.37;;;2.10;;
75772;SDS011;64381;0.000;0.000;2023-02-13T08:44:36;4.70;;;2.30;;
75772;SDS011;64381;0.000;0.000;2023-02-13T08:47:01;4.23;;;2.13;;
75772;SDS011;64381;0.000;0.000;2023-02-13T08:49:27;4.78;;;2.25;;
75772;SDS011;64381;0.000;0.000;2023-02-13T08:51:52;4.20;;;2.20;;
75772;SDS011;64381;0.000;0.000;2023-02-13T08:54:17;3.67;;;2.10;;
75772;SDS011;64381;0.000;0.000;2023-02-13T08:56:42;4.77;;;2.27;;
75772;SDS011;64381;0.000;0.000;2023-02-13T08:59:08;4.10;;;2.07;;
75772;SDS011;64381;0.000;0.000;2023-02-13T09:01:33;4.67;;;2.30;;
75772;SDS011;64381;0.000;0.000;2023-02-13T09:03:58;4.30;;;2.17;;
75772;SDS011;64381;0.000;0.000;2023-02-13T09:06:23;3.90;;;2.17;;
75772;SDS011;64381;0.000;0.000;2023-02-13T09:08:49;4.20;;;2.10;;
75772;SDS011;64381;0.000;0.000;2023-02-13T09:11:14;5.03;;;2.17;;
75772;SDS011;64381;0.000;0.000;2023-02-13T09:13:39;4.37;;;2.57;;
75772;SDS011;64381;0.000;0.000;2023-02-13T09:16:05;3.73;;;2.10;;
75772;SDS011;64381;0.000;0.000;2023-02-13T09:18:31;4.70;;;2.50;;
75772;SDS011;64381;0.000;0.000;2023-02-13T09:20:58;3.90;;;2.30;;
75772;SDS011;64381;0.000;0.000;2023-02-13T09:23:35;5.03;;;2.30;;
75772;SDS011;64381;0.000;0.000;2023-02-13T09:26:02;3.70;;;2.10;;
75772;SDS011;64381;0.000;0.000;2023-02-13T09:28:30;4.55;;;2.63;;
75772;SDS011;64381;0.000;0.000;2023-02-13T09:30:56;4.50;;;2.58;;
75772;SDS011;64381;0.000;0.000;2023-02-13T09:33:22;3.83;;;2.00;;
75772;SDS011;64381;0.000;0.000;2023-02-13T09:35:48;4.55;;;2.55;;
75772;SDS011;64381;0.000;0.000;2023-02-13T09:38:13;4.23;;;2.37;;
75772;SDS011;64381;0.000;0.000;2023-02-13T09:40:43;4.37;;;2.40;;
75772;SDS011;64381;0.000;0.000;2023-02-13T09:43:16;3.72;;;2.08;;
75772;SDS011;64381;0.000;0.000;2023-02-13T09:45:51;4.60;;;2.67;;
75772;SDS011;64381;0.000;0.000;2023-02-13T09:48:29;4.07;;;2.38;;
75772;SDS011;64381;0.000;0.000;2023-02-13T09:50:58;4.90;;;2.65;;
75772;SDS011;64381;0.000;0.000;2023-02-13T09:53:25;4.18;;;2.38;;
75772;SDS011;64381;0.000;0.000;2023-02-13T09:55:55;3.83;;;2.00;;
75772;SDS011;64381;0.000;0.000;2023-02-13T09:58:43;4.57;;;2.50;;
75772;SDS011;64381;0.000;0.000;2023-02-13T10:01:19;4.53;;;2.40;;
75772;SDS011;64381;0.000;0.000;2023-02-13T10:06:49;4.10;;;2.28;;
75772;SDS011;64381;0.000;0.000;2023-02-13T10:09:34;3.70;;;2.20;;
75772;SDS011;64381;0.000;0.000;2023-02-13T10:17:25;4.10;;;2.42;;
75772;SDS011;64381;0.000;0.000;2023-02-13T10:19:57;5.15;;;2.50;;
75772;SDS011;64381;0.000;0.000;2023-02-13T10:22:30;4.00;;;2.10;;
75772;SDS011;64381;0.000;0.000;2023-02-13T10:25:06;4.47;;;2.40;;
75772;SDS011;64381;0.000;0.000;2023-02-13T10:27:39;4.72;;;2.30;;
75772;SDS011;64381;0.000;0.000;2023-02-13T10:30:29;5.10;;;2.50;;
75772;SDS011;64381;0.000;0.000;2023-02-13T10:35:34;4.23;;;1.93;;
75772;SDS011;64381;0.000;0.000;2023-02-13T10:37:59;3.70;;;2.00;;
75772;SDS011;64381;0.000;0.000;2023-02-13T10:40:36;4.82;;;2.30;;
75772;SDS011;64381;0.000;0.000;2023-02-13T10:43:07;4.03;;;2.30;;
75772;SDS011;64381;0.000;0.000;2023-02-13T10:48:55;4.10;;;2.42;;
75772;SDS011;64381;0.000;0.000;2023-02-13T10:51:34;4.37;;;2.30;;
75772;SDS011;64381;0.000;0.000;2023-02-13T11:00:14;4.70;;;2.35;;
75772;SDS011;64381;0.000;0.000;2023-02-13T11:02:45;4.53;;;2.50;;
75772;SDS011;64381;0.000;0.000;2023-02-13T11:05:12;3.93;;;2.10;;
75772;SDS011;64381;0.000;0.000;2023-02-13T11:07:38;4.90;;;2.50;;
75772;SDS011;64381;0.000;0.000;2023-02-13T11:10:05;4.00;;;2.20;;
75772;SDS011;64381;0.000;0.000;2023-02-13T11:12:39;4.40;;;2.30;;
75772;SDS011;64381;0.000;0.000;2023-02-13T11:15:05;4.40;;;2.30;;
75772;SDS011;64381;0.000;0.000;2023-02-13T11:17:35;3.80;;;2.28;;
75772;SDS011;64381;0.000;0.000;2023-02-13T11:20:07;3.78;;;2.10;;
75772;SDS011;64381;0.000;0.000;2023-02-13T11:22:52;4.20;;;2.30;;
75772;SDS011;64381;0.000;0.000;2023-02-13T11:25:20;4.20;;;2.20;;
75772;SDS011;64381;0.000;0.000;2023-02-13T11:27:48;4.22;;;2.30;;
75772;SDS011;64381;0.000;0.000;2023-02-13T11:32:59;4.55;;;2.20;;
75772;SDS011;64381;0.000;0.000;2023-02-13T11:35:28;4.00;;;2.23;;
75772;SDS011;64381;0.000;0.000;2023-02-13T11:40:39;4.55;;;2.40;;
75772;SDS011;64381;0.000;0.000;2023-02-13T11:43:06;4.15;;;2.42;;
75772;SDS011;64381;0.000;0.000;2023-02-13T11:45:32;4.07;;;2.10;;
75772;SDS011;64381;0.000;0.000;2023-02-13T11:47:58;4.50;;;2.40;;
75772;SDS011;64381;0.000;0.000;2023-02-13T11:55:33;3.92;;;2.28;;
75772;SDS011;64381;0.000;0.000;2023-02-13T11:58:02;4.28;;;2.13;;
75772;SDS011;64381;0.000;0.000;2023-02-13T12:00:48;4.60;;;2.47;;
75772;SDS011;64381;0.000;0.000;2023-02-13T12:03:23;4.20;;;2.50;;
75772;SDS011;64381;0.000;0.000;2023-02-13T12:06:01;4.47;;;2.45;;
75772;SDS011;64381;0.000;0.000;2023-02-13T12:08:34;4.30;;;2.50;;
75772;SDS011;64381;0.000;0.000;2023-02-13T12:11:01;5.20;;;2.90;;
75772;SDS011;64381;0.000;0.000;2023-02-13T12:13:34;4.82;;;2.95;;
75772;SDS011;64381;0.000;0.000;2023-02-13T12:16:03;5.05;;;3.08;;
75772;SDS011;64381;0.000;0.000;2023-02-13T12:18:35;4.68;;;2.58;;
75772;SDS011;64381;0.000;0.000;2023-02-13T12:26:49;6.65;;;3.45;;
75772;SDS011;64381;0.000;0.000;2023-02-13T12:30:05;5.00;;;3.10;;
75772;SDS011;64381;0.000;0.000;2023-02-13T12:32:14;4.82;;;2.95;;
75772;SDS011;64381;0.000;0.000;2023-02-13T12:38:02;5.30;;;3.00;;
75772;SDS011;64381;0.000;0.000;2023-02-13T12:46:05;5.80;;;3.30;;
75772;SDS011;64381;0.000;0.000;2023-02-13T12:49:13;5.30;;;3.35;;
75772;SDS011;64381;0.000;0.000;2023-02-13T12:57:14;5.75;;;3.50;;
75772;SDS011;64381;0.000;0.000;2023-02-13T12:59:54;6.00;;;3.25;;
75772;SDS011;64381;0.000;0.000;2023-02-13T13:05:13;5.30;;;3.37;;
75772;SDS011;64381;0.000;0.000;2023-02-13T13:15:48;5.60;;;3.58;;
75772;SDS011;64381;0.000;0.000;2023-02-13T13:18:31;5.50;;;3.40;;
75772;SDS011;64381;0.000;0.000;2023-02-13T13:26:45;6.25;;;3.92;;
75772;SDS011;64381;0.000;0.000;2023-02-13T13:29:14;6.32;;;3.70;;
75772;SDS011;64381;0.000;0.000;2023-02-13T13:31:45;5.73;;;3.63;;
75772;SDS011;64381;0.000;0.000;2023-02-13T13:34:17;6.05;;;3.83;;
75772;SDS011;64381;0.000;0.000;2023-02-13T13:36:52;6.07;;;3.88;;
75772;SDS011;64381;0.000;0.000;2023-02-13T13:39:39;5.75;;;3.97;;
75772;SDS011;64381;0.000;0.000;2023-02-13T13:42:13;5.85;;;3.72;;
75772;SDS011;64381;0.000;0.000;2023-02-13T13:50:35;6.50;;;3.97;;
75772;SDS011;64381;0.000;0.000;2023-02-13T13:53:05;6.60;;;3.80;;
75772;SDS011;64381;0.000;0.000;2023-02-13T14:01:14;6.55;;;3.83;;
75772;SDS011;64381;0.000;0.000;2023-02-13T14:03:58;6.68;;;4.07;;
75772;SDS011;64381;0.000;0.000;2023-02-13T14:06:28;6.68;;;3.80;;
75772;SDS011;64381;0.000;0.000;2023-02-13T14:11:53;6.50;;;4.13;;
75772;SDS011;64381;0.000;0.000;2023-02-13T14:16:56;6.45;;;3.85;;
75772;SDS011;64381;0.000;0.000;2023-02-13T14:19:33;5.63;;;3.90;;
75772;SDS011;64381;0.000;0.000;2023-02-13T14:27:22;6.30;;;4.10;;
75772;SDS011;64381;0.000;0.000;2023-02-13T14:29:48;6.82;;;4.20;;
75772;SDS011;64381;0.000;0.000;2023-02-13T14:32:18;7.10;;;4.27;;
75772;SDS011;64381;0.000;0.000;2023-02-13T14:35:15;6.68;;;4.00;;
75772;SDS011;64381;0.000;0.000;2023-02-13T14:37:49;7.05;;;3.63;;
75772;SDS011;64381;0.000;0.000;2023-02-13T14:42:42;6.17;;;4.20;;
75772;SDS011;64381;0.000;0.000;2023-02-13T14:45:16;6.75;;;4.07;;
75772;SDS011;64381;0.000;0.000;2023-02-13T14:47:45;5.27;;;3.60;;
75772;SDS011;64381;0.000;0.000;2023-02-13T14:50:16;6.05;;;3.80;;
75772;SDS011;64381;0.000;0.000;2023-02-13T14:52:45;6.38;;;4.05;;
75772;SDS011;64381;0.000;0.000;2023-02-13T14:58:03;7.20;;;4.15;;
75772;SDS011;64381;0.000;0.000;2023-02-13T15:00:42;6.17;;;4.13;;
75772;SDS011;64381;0.000;0.000;2023-02-13T15:05:55;6.00;;;4.00;;
75772;SDS011;64381;0.000;0.000;2023-02-13T15:08:26;6.72;;;3.83;;
75772;SDS011;64381;0.000;0.000;2023-02-13T15:10:55;6.72;;;4.10;;
75772;SDS011;64381;0.000;0.000;2023-02-13T15:13:25;7.33;;;4.47;;
75772;SDS011;64381;0.000;0.000;2023-02-13T15:15:57;6.45;;;4.10;;
75772;SDS011;64381;0.000;0.000;2023-02-13T15:18:39;6.43;;;3.97;;
75772;SDS011;64381;0.000;0.000;2023-02-13T15:21:15;7.03;;;4.20;;
75772;SDS011;64381;0.000;0.000;2023-02-13T15:23:43;6.75;;;3.97;;
75772;SDS011;64381;0.000;0.000;2023-02-13T15:26:18;6.20;;;3.83;;
75772;SDS011;64381;0.000;0.000;2023-02-13T15:28:56;6.82;;;3.92;;
75772;SDS011;64381;0.000;0.000;2023-02-13T15:31:48;6.80;;;4.20;;
75772;SDS011;64381;0.000;0.000;2023-02-13T15:34:32;6.53;;;4.00;;
75772;SDS011;64381;0.000;0.000;2023-02-13T15:36:57;6.72;;;4.22;;
75772;SDS011;64381;0.000;0.000;2023-02-13T15:39:23;6.53;;;3.90;;
75772;SDS011;64381;0.000;0.000;2023-02-13T15:41:51;6.75;;;4.25;;
75772;SDS011;64381;0.000;0.000;2023-02-13T15:44:21;6.75;;;4.20;;
75772;SDS011;64381;0.000;0.000;2023-02-13T15:46:49;6.33;;;3.87;;
75772;SDS011;64381;0.000;0.000;2023-02-13T15:49:20;5.90;;;3.90;;
75772;SDS011;64381;0.000;0.000;2023-02-13T15:51:47;7.18;;;4.20;;
75772;SDS011;64381;0.000;0.000;2023-02-13T15:54:25;6.90;;;3.95;;
75772;SDS011;64381;0.000;0.000;2023-02-13T15:56:53;6.30;;;3.97;;
75772;SDS011;64381;0.000;0.000;2023-02-13T15:59:20;8.10;;;4.38;;
75772;SDS011;64381;0.000;0.000;2023-02-13T16:01:46;16.52;;;5.05;;
75772;SDS011;64381;0.000;0.000;2023-02-13T16:04:13;13.60;;;5.10;;
75772;SDS011;64381;0.000;0.000;2023-02-13T16:06:41;16.25;;;5.28;;
75772;SDS011;64381;0.000;0.000;2023-02-13T16:09:20;14.33;;;5.13;;
75772;SDS011;64381;0.000;0.000;2023-02-13T16:11:47;10.98;;;5.20;;
75772;SDS011;64381;0.000;0.000;2023-02-13T16:16:55;16.30;;;6.03;;
75772;SDS011;64381;0.000;0.000;2023-02-13T16:24:50;11.70;;;4.80;;
75772;SDS011;64381;0.000;0.000;2023-02-13T16:27:18;10.65;;;5.00;;
75772;SDS011;64381;0.000;0.000;2023-02-13T16:29:57;10.57;;;4.90;;
75772;SDS011;64381;0.000;0.000;2023-02-13T16:32:29;10.80;;;4.85;;
75772;SDS011;64381;0.000;0.000;2023-02-13T16:34:56;10.93;;;4.50;;
75772;SDS011;64381;0.000;0.000;2023-02-13T16:37:49;10.25;;;4.50;;
75772;SDS011;64381;0.000;0.000;2023-02-13T16:48:43;9.02;;;4.50;;
75772;SDS011;64381;0.000;0.000;2023-02-13T16:51:10;10.00;;;4.72;;
75772;SDS011;64381;0.000;0.000;2023-02-13T16:53:36;10.63;;;5.00;;
75772;SDS011;64381;0.000;0.000;2023-02-13T16:56:06;11.57;;;5.53;;
75772;SDS011;64381;0.000;0.000;2023-02-13T16:58:33;10.88;;;5.00;;
75772;SDS011;64381;0.000;0.000;2023-02-13T17:00:58;8.20;;;4.80;;
75772;SDS011;64381;0.000;0.000;2023-02-13T17:03:24;9.73;;;5.00;;
75772;SDS011;64381;0.000;0.000;2023-02-13T17:05:50;10.57;;;6.03;;
75772;SDS011;64381;0.000;0.000;2023-02-13T17:08:15;9.57;;;5.03;;
75772;SDS011;64381;0.000;0.000;2023-02-13T17:10:40;12.17;;;5.53;;
75772;SDS011;64381;0.000;0.000;2023-02-13T17:13:25;10.80;;;5.57;;
75772;SDS011;64381;0.000;0.000;2023-02-13T17:15:51;11.23;;;5.70;;
75772;SDS011;64381;0.000;0.000;2023-02-13T17:18:17;9.67;;;5.73;;
75772;SDS011;64381;0.000;0.000;2023-02-13T17:20:42;11.23;;;5.93;;
75772;SDS011;64381;0.000;0.000;2023-02-13T17:23:16;10.07;;;6.13;;
75772;SDS011;64381;0.000;0.000;2023-02-13T17:25:44;10.73;;;5.82;;
75772;SDS011;64381;0.000;0.000;2023-02-13T17:28:17;8.67;;;5.87;;
75772;SDS011;64381;0.000;0.000;2023-02-13T17:30:43;9.50;;;5.65;;
75772;SDS011;64381;0.000;0.000;2023-02-13T17:33:10;11.70;;;6.30;;
75772;SDS011;64381;0.000;0.000;2023-02-13T17:35:40;11.37;;;6.03;;
75772;SDS011;64381;0.000;0.000;2023-02-13T17:38:05;10.00;;;5.87;;
75772;SDS011;64381;0.000;0.000;2023-02-13T17:40:30;9.13;;;5.53;;
75772;SDS011;64381;0.000;0.000;2023-02-13T17:42:56;11.73;;;6.83;;
75772;SDS011;64381;0.000;0.000;2023-02-13T17:45:25;10.02;;;6.40;;
75772;SDS011;64381;0.000;0.000;2023-02-13T17:47:52;9.75;;;6.05;;
75772;SDS011;64381;0.000;0.000;2023-02-13T17:50:18;13.13;;;6.83;;
75772;SDS011;64381;0.000;0.000;2023-02-13T17:52:44;11.02;;;5.82;;
75772;SDS011;64381;0.000;0.000;2023-02-13T17:55:44;11.70;;;6.55;;